sensor_id;sensor_type;location;lat;lon;timestamp;pressure;altitude;pressure_sealevel;temperature;humidity
11830;BME280;5972;42.134;24.718;2022-09-29T00:01:51;98630.09;;;18.92;100.00
11830;BME280;5972;42.134;24.718;2022-09-29T00:04:17;98620.81;;;18.86;100.00
11830;BME280;5972;42.134;24.718;2022-09-29T00:06:44;98623.38;;;18.73;100.00
11830;BME280;5972;42.134;24.718;2022-09-29T00:09:12;98627.47;;;18.65;100.00
11830;BME280;5972;42.134;24.718;2022-09-29T00:11:39;98619.78;;;18.56;100.00
11830;BME280;5972;42.134;24.718;2022-09-29T00:14:06;98621.06;;;18.48;100.00
11830;BME280;5972;42.134;24.718;2022-09-29T00:16:33;98614.28;;;18.56;100.00
11830;BME280;5972;42.134;24.718;2022-09-29T00:19:00;98611.91;;;18.35;100.00
11830;BME280;5972;42.134;24.718;2022-09-29T00:21:27;98619.63;;;18.40;100.00
11830;BME280;5972;42.134;24.718;2022-09-29T00:23:53;98622.25;;;18.47;100.00
11830;BME280;5972;42.134;24.718;2022-09-29T00:26:23;98607.66;;;18.54;100.00
11830;BME280;5972;42.134;24.718;2022-09-29T00:28:52;98610.13;;;18.48;100.00
11830;BME280;5972;42.134;24.718;2022-09-29T00:31:21;98603.34;;;18.56;100.00
11830;BME280;5972;42.134;24.718;2022-09-29T00:33:48;98601.91;;;18.48;100.00
11830;BME280;5972;42.134;24.718;2022-09-29T00:36:17;98589.94;;;18.39;100.00
11830;BME280;5972;42.134;24.718;2022-09-29T00:38:45;98594.66;;;18.38;100.00
11830;BME280;5972;42.134;24.718;2022-09-29T00:41:13;98595.72;;;18.44;100.00
11830;BME280;5972;42.134;24.718;2022-09-29T00:43:56;98601.03;;;18.55;100.00
11830;BME280;5972;42.134;24.718;2022-09-29T00:46:28;98598.38;;;18.48;100.00
11830;BME280;5972;42.134;24.718;2022-09-29T00:48:59;98604.16;;;18.53;100.00
11830;BME280;5972;42.134;24.718;2022-09-29T00:51:29;98599.19;;;18.45;100.00
11830;BME280;5972;42.134;24.718;2022-09-29T00:53:57;98606.19;;;18.49;100.00
11830;BME280;5972;42.134;24.718;2022-09-29T00:56:25;98604.69;;;18.45;100.00
11830;BME280;5972;42.134;24.718;2022-09-29T00:58:55;98610.66;;;18.40;100.00
11830;BME280;5972;42.134;24.718;2022-09-29T01:01:25;98606.38;;;18.39;100.00
11830;BME280;5972;42.134;24.718;2022-09-29T01:04:15;98603.06;;;18.27;100.00
11830;BME280;5972;42.134;24.718;2022-09-29T01:06:45;98600.81;;;17.96;100.00
11830;BME280;5972;42.134;24.718;2022-09-29T01:09:15;98611.16;;;17.84;100.00
11830;BME280;5972;42.134;24.718;2022-09-29T01:18:29;98625.28;;;17.83;100.00
11830;BME280;5972;42.134;24.718;2022-09-29T01:21:01;98633.91;;;17.78;100.00
11830;BME280;5972;42.134;24.718;2022-09-29T01:30:17;98619.03;;;17.22;100.00
11830;BME280;5972;42.134;24.718;2022-09-29T01:33:03;98631.88;;;17.25;100.00
11830;BME280;5972;42.134;24.718;2022-09-29T01:35:40;98648.94;;;17.36;100.00
11830;BME280;5972;42.134;24.718;2022-09-29T01:41:35;98669.69;;;17.30;100.00
11830;BME280;5972;42.134;24.718;2022-09-29T01:44:08;98650.88;;;17.01;100.00
11830;BME280;5972;42.134;24.718;2022-09-29T01:46:43;98671.06;;;17.11;100.00
11830;BME280;5972;42.134;24.718;2022-09-29T01:49:20;98671.19;;;17.00;100.00
11830;BME280;5972;42.134;24.718;2022-09-29T01:51:52;98681.47;;;16.89;100.00
11830;BME280;5972;42.134;24.718;2022-09-29T01:54:23;98698.91;;;17.02;100.00
11830;BME280;5972;42.134;24.718;2022-09-29T01:56:55;98688.81;;;16.96;100.00
11830;BME280;5972;42.134;24.718;2022-09-29T01:59:29;98698.03;;;16.72;100.00
11830;BME280;5972;42.134;24.718;2022-09-29T02:02:01;98693.03;;;16.63;100.00
11830;BME280;5972;42.134;24.718;2022-09-29T02:04:36;98703.19;;;16.62;100.00
11830;BME280;5972;42.134;24.718;2022-09-29T02:07:07;98693.50;;;16.54;100.00
11830;BME280;5972;42.134;24.718;2022-09-29T02:09:40;98677.19;;;16.44;100.00
11830;BME280;5972;42.134;24.718;2022-09-29T02:12:09;98688.88;;;16.44;100.00
11830;BME280;5972;42.134;24.718;2022-09-29T02:14:42;98682.66;;;16.44;100.00
11830;BME280;5972;42.134;24.718;2022-09-29T02:17:13;98684.19;;;16.45;100.00
11830;BME280;5972;42.134;24.718;2022-09-29T02:19:46;98690.41;;;16.49;100.00
11830;BME280;5972;42.134;24.718;2022-09-29T02:22:14;98697.38;;;16.60;100.00
11830;BME280;5972;42.134;24.718;2022-09-29T02:24:41;98672.63;;;16.30;100.00
11830;BME280;5972;42.134;24.718;2022-09-29T02:34:12;98691.84;;;16.12;100.00
11830;BME280;5972;42.134;24.718;2022-09-29T02:36:48;98692.94;;;16.22;100.00
11830;BME280;5972;42.134;24.718;2022-09-29T02:39:28;98685.09;;;16.28;100.00
11830;BME280;5972;42.134;24.718;2022-09-29T02:42:06;98687.06;;;16.27;100.00
11830;BME280;5972;42.134;24.718;2022-09-29T02:44:50;98698.75;;;16.31;100.00
11830;BME280;5972;42.134;24.718;2022-09-29T02:47:43;98706.13;;;16.34;100.00
11830;BME280;5972;42.134;24.718;2022-09-29T02:53:42;98696.41;;;16.30;100.00
11830;BME280;5972;42.134;24.718;2022-09-29T02:59:54;98704.91;;;16.42;100.00
11830;BME280;5972;42.134;24.718;2022-09-29T03:02:24;98698.66;;;16.42;100.00
11830;BME280;5972;42.134;24.718;2022-09-29T03:04:51;98687.44;;;16.29;100.00
11830;BME280;5972;42.134;24.718;2022-09-29T03:07:19;98702.16;;;16.42;100.00
11830;BME280;5972;42.134;24.718;2022-09-29T03:09:48;98704.91;;;16.39;100.00
11830;BME280;5972;42.134;24.718;2022-09-29T03:12:22;98703.81;;;16.33;100.00
11830;BME280;5972;42.134;24.718;2022-09-29T03:14:49;98699.91;;;16.30;100.00
11830;BME280;5972;42.134;24.718;2022-09-29T03:17:16;98709.06;;;16.02;100.00
11830;BME280;5972;42.134;24.718;2022-09-29T03:19:43;98693.44;;;16.06;100.00
11830;BME280;5972;42.134;24.718;2022-09-29T03:22:09;98691.09;;;16.08;100.00
11830;BME280;5972;42.134;24.718;2022-09-29T03:24:36;98696.97;;;16.03;100.00
11830;BME280;5972;42.134;24.718;2022-09-29T03:27:05;98683.00;;;15.98;100.00
11830;BME280;5972;42.134;24.718;2022-09-29T03:36:34;98690.78;;;15.99;100.00
11830;BME280;5972;42.134;24.718;2022-09-29T03:39:00;98684.59;;;15.92;100.00
11830;BME280;5972;42.134;24.718;2022-09-29T03:41:27;98693.91;;;15.94;100.00
11830;BME280;5972;42.134;24.718;2022-09-29T03:43:55;98689.28;;;15.88;100.00
11830;BME280;5972;42.134;24.718;2022-09-29T03:46:23;98700.16;;;15.91;100.00
11830;BME280;5972;42.134;24.718;2022-09-29T03:48:50;98703.28;;;15.90;100.00
11830;BME280;5972;42.134;24.718;2022-09-29T03:51:16;98706.41;;;15.92;100.00
11830;BME280;5972;42.134;24.718;2022-09-29T03:53:43;98718.84;;;15.96;100.00
11830;BME280;5972;42.134;24.718;2022-09-29T03:56:10;98715.72;;;15.98;100.00
11830;BME280;5972;42.134;24.718;2022-09-29T03:58:37;98700.50;;;16.00;100.00
11830;BME280;5972;42.134;24.718;2022-09-29T04:01:05;98696.97;;;16.03;100.00
11830;BME280;5972;42.134;24.718;2022-09-29T04:03:32;98697.34;;;16.09;100.00
11830;BME280;5972;42.134;24.718;2022-09-29T04:05:59;98698.47;;;16.11;100.00
11830;BME280;5972;42.134;24.718;2022-09-29T04:08:25;98706.31;;;16.09;100.00
11830;BME280;5972;42.134;24.718;2022-09-29T04:10:52;98712.53;;;16.10;100.00
11830;BME280;5972;42.134;24.718;2022-09-29T04:13:19;98714.50;;;16.09;100.00
11830;BME280;5972;42.134;24.718;2022-09-29T04:15:47;98714.03;;;16.21;100.00
11830;BME280;5972;42.134;24.718;2022-09-29T04:18:15;98733.16;;;16.14;100.00
11830;BME280;5972;42.134;24.718;2022-09-29T04:20:42;98734.81;;;15.98;100.00
11830;BME280;5972;42.134;24.718;2022-09-29T04:23:08;98733.22;;;16.04;100.00
11830;BME280;5972;42.134;24.718;2022-09-29T04:25:37;98734.72;;;16.12;100.00
11830;BME280;5972;42.134;24.718;2022-09-29T04:28:03;98740.22;;;16.08;100.00
11830;BME280;5972;42.134;24.718;2022-09-29T04:30:30;98742.50;;;16.17;100.00
11830;BME280;5972;42.134;24.718;2022-09-29T04:32:57;98759.22;;;16.26;100.00
11830;BME280;5972;42.134;24.718;2022-09-29T04:35:25;98762.69;;;16.30;100.00
11830;BME280;5972;42.134;24.718;2022-09-29T04:37:53;98758.25;;;16.50;100.00
11830;BME280;5972;42.134;24.718;2022-09-29T04:40:21;98772.28;;;16.59;100.00
11830;BME280;5972;42.134;24.718;2022-09-29T04:42:48;98781.22;;;16.56;100.00
11830;BME280;5972;42.134;24.718;2022-09-29T04:45:15;98792.97;;;16.60;100.00
11830;BME280;5972;42.134;24.718;2022-09-29T04:47:42;98796.81;;;16.63;100.00
11830;BME280;5972;42.134;24.718;2022-09-29T04:50:09;98791.75;;;16.61;100.00
11830;BME280;5972;42.134;24.718;2022-09-29T04:52:41;98790.56;;;16.66;100.00
11830;BME280;5972;42.134;24.718;2022-09-29T04:55:09;98797.69;;;16.49;100.00
11830;BME280;5972;42.134;24.718;2022-09-29T04:57:37;98789.88;;;16.48;100.00
11830;BME280;5972;42.134;24.718;2022-09-29T05:00:05;98771.50;;;16.59;100.00
11830;BME280;5972;42.134;24.718;2022-09-29T05:02:32;98765.19;;;16.69;100.00
11830;BME280;5972;42.134;24.718;2022-09-29T05:04:59;98777.13;;;16.86;100.00
11830;BME280;5972;42.134;24.718;2022-09-29T05:07:26;98779.34;;;17.01;100.00
11830;BME280;5972;42.134;24.718;2022-09-29T05:09:54;98792.69;;;17.33;100.00
11830;BME280;5972;42.134;24.718;2022-09-29T05:12:21;98793.78;;;17.80;100.00
11830;BME280;5972;42.134;24.718;2022-09-29T05:14:50;98785.91;;;18.13;100.00
11830;BME280;5972;42.134;24.718;2022-09-29T05:17:17;98805.09;;;18.70;100.00
11830;BME280;5972;42.134;24.718;2022-09-29T05:19:44;98800.22;;;19.04;100.00
11830;BME280;5972;42.134;24.718;2022-09-29T05:22:11;98797.97;;;19.42;100.00
11830;BME280;5972;42.134;24.718;2022-09-29T05:24:37;98793.31;;;19.82;100.00
11830;BME280;5972;42.134;24.718;2022-09-29T05:27:06;98792.91;;;20.20;100.00
11830;BME280;5972;42.134;24.718;2022-09-29T05:29:33;98799.34;;;21.14;100.00
11830;BME280;5972;42.134;24.718;2022-09-29T05:32:00;98789.00;;;21.50;93.24
11830;BME280;5972;42.134;24.718;2022-09-29T05:34:26;98790.56;;;21.93;89.02
11830;BME280;5972;42.134;24.718;2022-09-29T05:40:38;98787.53;;;25.70;57.89
11830;BME280;5972;42.134;24.718;2022-09-29T05:43:06;98779.47;;;27.31;49.63
11830;BME280;5972;42.134;24.718;2022-09-29T05:45:32;98779.09;;;28.50;44.52
11830;BME280;5972;42.134;24.718;2022-09-29T05:48:00;98789.53;;;29.71;41.08
11830;BME280;5972;42.134;24.718;2022-09-29T05:50:58;98789.38;;;30.63;38.67
11830;BME280;5972;42.134;24.718;2022-09-29T05:53:25;98784.47;;;31.49;36.58
11830;BME280;5972;42.134;24.718;2022-09-29T05:55:52;98783.56;;;31.91;35.48
11830;BME280;5972;42.134;24.718;2022-09-29T05:58:20;98771.91;;;32.20;34.39
11830;BME280;5972;42.134;24.718;2022-09-29T06:00:47;98776.97;;;32.22;34.19
11830;BME280;5972;42.134;24.718;2022-09-29T06:03:14;98781.28;;;32.50;34.07
11830;BME280;5972;42.134;24.718;2022-09-29T06:05:41;98778.63;;;33.08;32.83
11830;BME280;5972;42.134;24.718;2022-09-29T06:08:08;98776.16;;;33.98;31.75
11830;BME280;5972;42.134;24.718;2022-09-29T06:10:35;98769.81;;;34.27;31.00
11830;BME280;5972;42.134;24.718;2022-09-29T06:13:02;98772.47;;;34.44;30.24
11830;BME280;5972;42.134;24.718;2022-09-29T06:15:30;98768.03;;;35.02;29.53
11830;BME280;5972;42.134;24.718;2022-09-29T06:17:57;98763.13;;;35.65;29.16
11830;BME280;5972;42.134;24.718;2022-09-29T06:20:25;98757.09;;;35.93;28.21
11830;BME280;5972;42.134;24.718;2022-09-29T06:22:52;98756.16;;;36.22;27.40
11830;BME280;5972;42.134;24.718;2022-09-29T06:25:19;98754.75;;;36.42;27.36
11830;BME280;5972;42.134;24.718;2022-09-29T06:27:46;98764.25;;;36.84;26.82
11830;BME280;5972;42.134;24.718;2022-09-29T06:30:14;98770.97;;;36.67;26.71
11830;BME280;5972;42.134;24.718;2022-09-29T06:32:42;98765.63;;;37.30;26.38
11830;BME280;5972;42.134;24.718;2022-09-29T06:35:09;98770.97;;;37.20;25.88
11830;BME280;5972;42.134;24.718;2022-09-29T06:37:53;98786.38;;;36.80;26.42
11830;BME280;5972;42.134;24.718;2022-09-29T06:40:20;98778.91;;;37.22;25.84
11830;BME280;5972;42.134;24.718;2022-09-29T06:42:48;98779.50;;;36.17;26.96
11830;BME280;5972;42.134;24.718;2022-09-29T06:45:15;98773.22;;;36.56;26.44
11830;BME280;5972;42.134;24.718;2022-09-29T06:47:45;98772.38;;;36.87;26.09
11830;BME280;5972;42.134;24.718;2022-09-29T06:50:12;98774.66;;;37.28;25.91
11830;BME280;5972;42.134;24.718;2022-09-29T06:52:39;98776.50;;;36.73;26.06
11830;BME280;5972;42.134;24.718;2022-09-29T06:55:06;98767.47;;;36.48;26.58
11830;BME280;5972;42.134;24.718;2022-09-29T06:57:46;98776.53;;;36.41;26.64
11830;BME280;5972;42.134;24.718;2022-09-29T07:00:13;98772.81;;;36.91;25.90
11830;BME280;5972;42.134;24.718;2022-09-29T07:02:45;98772.97;;;37.59;25.61
11830;BME280;5972;42.134;24.718;2022-09-29T07:05:12;98781.16;;;37.83;25.19
11830;BME280;5972;42.134;24.718;2022-09-29T07:07:38;98790.91;;;37.62;25.60
11830;BME280;5972;42.134;24.718;2022-09-29T07:10:23;98786.78;;;38.17;25.18
11830;BME280;5972;42.134;24.718;2022-09-29T07:12:50;98789.75;;;38.82;24.23
11830;BME280;5972;42.134;24.718;2022-09-29T07:15:28;98784.28;;;38.84;23.61
11830;BME280;5972;42.134;24.718;2022-09-29T07:17:58;98773.00;;;39.20;23.49
11830;BME280;5972;42.134;24.718;2022-09-29T07:20:37;98792.34;;;38.10;24.88
11830;BME280;5972;42.134;24.718;2022-09-29T07:23:05;98793.66;;;37.75;25.45
11830;BME280;5972;42.134;24.718;2022-09-29T07:25:32;98789.91;;;37.93;24.93
11830;BME280;5972;42.134;24.718;2022-09-29T07:27:59;98785.66;;;38.41;24.41
11830;BME280;5972;42.134;24.718;2022-09-29T07:30:45;98778.97;;;39.08;23.70
11830;BME280;5972;42.134;24.718;2022-09-29T07:33:20;98789.38;;;39.14;23.50
11830;BME280;5972;42.134;24.718;2022-09-29T07:35:51;98786.44;;;39.27;23.33
11830;BME280;5972;42.134;24.718;2022-09-29T07:38:39;98779.16;;;39.46;23.16
11830;BME280;5972;42.134;24.718;2022-09-29T07:41:12;98774.44;;;40.00;22.66
11830;BME280;5972;42.134;24.718;2022-09-29T07:43:42;98782.97;;;40.30;22.85
11830;BME280;5972;42.134;24.718;2022-09-29T07:46:09;98791.47;;;40.30;22.52
11830;BME280;5972;42.134;24.718;2022-09-29T07:48:38;98799.97;;;40.53;22.16
11830;BME280;5972;42.134;24.718;2022-09-29T07:51:07;98790.09;;;39.42;23.05
11830;BME280;5972;42.134;24.718;2022-09-29T07:53:34;98784.53;;;39.22;23.86
11830;BME280;5972;42.134;24.718;2022-09-29T07:56:02;98797.69;;;39.19;23.50
11830;BME280;5972;42.134;24.718;2022-09-29T07:58:30;98799.75;;;39.11;23.76
11830;BME280;5972;42.134;24.718;2022-09-29T08:00:58;98801.59;;;38.80;24.55
11830;BME280;5972;42.134;24.718;2022-09-29T08:03:24;98790.38;;;39.67;23.62
11830;BME280;5972;42.134;24.718;2022-09-29T08:05:53;98812.25;;;40.33;22.98
11830;BME280;5972;42.134;24.718;2022-09-29T08:08:20;98800.72;;;40.46;22.36
11830;BME280;5972;42.134;24.718;2022-09-29T08:10:47;98802.91;;;41.24;21.66
11830;BME280;5972;42.134;24.718;2022-09-29T08:13:14;98793.94;;;41.42;22.03
11830;BME280;5972;42.134;24.718;2022-09-29T08:15:41;98806.81;;;41.51;21.66
11830;BME280;5972;42.134;24.718;2022-09-29T08:18:08;98818.22;;;41.76;21.53
11830;BME280;5972;42.134;24.718;2022-09-29T08:20:35;98814.16;;;41.94;21.28
11830;BME280;5972;42.134;24.718;2022-09-29T08:23:03;98822.13;;;41.48;21.50
11830;BME280;5972;42.134;24.718;2022-09-29T08:25:31;98827.22;;;40.79;22.08
11830;BME280;5972;42.134;24.718;2022-09-29T08:27:58;98812.06;;;40.69;22.32
11830;BME280;5972;42.134;24.718;2022-09-29T08:30:27;98817.00;;;41.54;21.19
11830;BME280;5972;42.134;24.718;2022-09-29T08:32:54;98821.75;;;41.44;21.30
11830;BME280;5972;42.134;24.718;2022-09-29T08:35:21;98823.59;;;40.86;21.93
11830;BME280;5972;42.134;24.718;2022-09-29T08:37:48;98819.53;;;37.53;25.17
11830;BME280;5972;42.134;24.718;2022-09-29T08:40:16;98812.38;;;35.77;26.99
11830;BME280;5972;42.134;24.718;2022-09-29T08:42:50;98818.47;;;37.03;26.27
11830;BME280;5972;42.134;24.718;2022-09-29T08:45:26;98800.69;;;37.81;25.03
11830;BME280;5972;42.134;24.718;2022-09-29T08:48:02;98793.56;;;38.43;24.46
11830;BME280;5972;42.134;24.718;2022-09-29T08:50:32;98807.47;;;38.82;23.92
11830;BME280;5972;42.134;24.718;2022-09-29T08:53:06;98806.09;;;38.76;23.78
11830;BME280;5972;42.134;24.718;2022-09-29T08:55:41;98805.56;;;39.05;23.25
11830;BME280;5972;42.134;24.718;2022-09-29T08:58:12;98805.66;;;39.57;23.32
11830;BME280;5972;42.134;24.718;2022-09-29T09:00:44;98805.19;;;39.37;22.92
11830;BME280;5972;42.134;24.718;2022-09-29T09:03:35;98793.69;;;39.43;23.21
11830;BME280;5972;42.134;24.718;2022-09-29T09:06:13;98803.09;;;39.81;23.22
11830;BME280;5972;42.134;24.718;2022-09-29T09:08:57;98799.41;;;39.58;23.63
11830;BME280;5972;42.134;24.718;2022-09-29T09:12:02;98805.25;;;40.87;22.05
11830;BME280;5972;42.134;24.718;2022-09-29T09:14:46;98785.41;;;40.49;22.45
11830;BME280;5972;42.134;24.718;2022-09-29T09:17:26;98787.69;;;40.28;22.72
11830;BME280;5972;42.134;24.718;2022-09-29T09:20:17;98795.56;;;39.99;22.95
11830;BME280;5972;42.134;24.718;2022-09-29T09:22:54;98792.00;;;40.06;22.87
11830;BME280;5972;42.134;24.718;2022-09-29T09:25:27;98782.47;;;39.73;22.81
11830;BME280;5972;42.134;24.718;2022-09-29T09:28:03;98777.28;;;39.49;22.83
11830;BME280;5972;42.134;24.718;2022-09-29T09:30:35;98771.53;;;38.20;24.32
11830;BME280;5972;42.134;24.718;2022-09-29T09:33:06;98763.06;;;36.79;25.50
11830;BME280;5972;42.134;24.718;2022-09-29T09:35:41;98770.38;;;35.79;26.92
11830;BME280;5972;42.134;24.718;2022-09-29T09:38:14;98743.53;;;35.40;27.34
11830;BME280;5972;42.134;24.718;2022-09-29T09:40:46;98757.94;;;34.10;28.67
11830;BME280;5972;42.134;24.718;2022-09-29T09:43:19;98733.13;;;32.80;30.46
11830;BME280;5972;42.134;24.718;2022-09-29T09:45:51;98750.47;;;31.72;32.34
11830;BME280;5972;42.134;24.718;2022-09-29T09:48:25;98751.97;;;31.62;32.84
11830;BME280;5972;42.134;24.718;2022-09-29T09:50:58;98753.31;;;31.08;33.92
11830;BME280;5972;42.134;24.718;2022-09-29T09:53:30;98757.50;;;31.40;33.55
11830;BME280;5972;42.134;24.718;2022-09-29T09:56:04;98750.28;;;31.11;34.40
11830;BME280;5972;42.134;24.718;2022-09-29T09:58:55;98757.56;;;30.97;34.36
11830;BME280;5972;42.134;24.718;2022-09-29T10:01:25;98746.69;;;30.57;35.29
11830;BME280;5972;42.134;24.718;2022-09-29T10:03:52;98748.84;;;30.42;35.87
11830;BME280;5972;42.134;24.718;2022-09-29T10:09:32;98761.13;;;30.98;35.08
11830;BME280;5972;42.134;24.718;2022-09-29T10:11:59;98764.47;;;31.78;33.88
11830;BME280;5972;42.134;24.718;2022-09-29T10:14:30;98763.50;;;32.42;32.65
11830;BME280;5972;42.134;24.718;2022-09-29T10:17:10;98752.78;;;32.41;32.54
11830;BME280;5972;42.134;24.718;2022-09-29T10:19:54;98760.41;;;31.90;33.65
11830;BME280;5972;42.134;24.718;2022-09-29T10:22:22;98762.22;;;32.43;32.72
11830;BME280;5972;42.134;24.718;2022-09-29T10:24:51;98733.94;;;32.52;32.53
11830;BME280;5972;42.134;24.718;2022-09-29T10:27:23;98743.97;;;33.06;31.87
11830;BME280;5972;42.134;24.718;2022-09-29T10:29:52;98751.00;;;33.34;31.42
11830;BME280;5972;42.134;24.718;2022-09-29T10:32:24;98762.53;;;33.25;31.56
11830;BME280;5972;42.134;24.718;2022-09-29T10:35:05;98751.06;;;33.23;31.39
11830;BME280;5972;42.134;24.718;2022-09-29T10:37:35;98748.03;;;33.21;31.78
11830;BME280;5972;42.134;24.718;2022-09-29T10:40:13;98754.84;;;32.12;33.29
11830;BME280;5972;42.134;24.718;2022-09-29T10:42:43;98749.25;;;32.12;32.88
11830;BME280;5972;42.134;24.718;2022-09-29T10:45:15;98740.50;;;31.55;33.83
11830;BME280;5972;42.134;24.718;2022-09-29T10:48:07;98737.16;;;31.39;34.67
11830;BME280;5972;42.134;24.718;2022-09-29T10:50:36;98748.72;;;31.05;35.13
11830;BME280;5972;42.134;24.718;2022-09-29T10:53:25;98738.22;;;30.88;35.61
11830;BME280;5972;42.134;24.718;2022-09-29T10:55:54;98720.53;;;30.60;36.06
11830;BME280;5972;42.134;24.718;2022-09-29T10:58:24;98722.78;;;30.50;36.66
11830;BME280;5972;42.134;24.718;2022-09-29T11:01:08;98728.47;;;29.73;38.17
11830;BME280;5972;42.134;24.718;2022-09-29T11:03:37;98701.44;;;29.53;39.05
11830;BME280;5972;42.134;24.718;2022-09-29T11:06:08;98696.59;;;29.80;38.67
11830;BME280;5972;42.134;24.718;2022-09-29T11:08:55;98724.50;;;29.80;38.90
11830;BME280;5972;42.134;24.718;2022-09-29T11:11:25;98706.78;;;30.14;37.93
11830;BME280;5972;42.134;24.718;2022-09-29T11:13:53;98706.50;;;29.81;38.50
11830;BME280;5972;42.134;24.718;2022-09-29T11:16:50;98709.13;;;29.64;38.93
11830;BME280;5972;42.134;24.718;2022-09-29T11:19:18;98697.81;;;29.73;38.29
11830;BME280;5972;42.134;24.718;2022-09-29T11:22:15;98686.59;;;29.93;38.77
11830;BME280;5972;42.134;24.718;2022-09-29T11:25:05;98698.81;;;29.70;38.63
11830;BME280;5972;42.134;24.718;2022-09-29T11:27:52;98697.63;;;29.82;39.54
11830;BME280;5972;42.134;24.718;2022-09-29T11:30:26;98699.84;;;30.04;39.60
11830;BME280;5972;42.134;24.718;2022-09-29T11:33:05;98701.66;;;30.07;39.41
11830;BME280;5972;42.134;24.718;2022-09-29T11:35:42;98682.41;;;30.09;39.24
11830;BME280;5972;42.134;24.718;2022-09-29T11:38:39;98693.38;;;30.18;39.54
11830;BME280;5972;42.134;24.718;2022-09-29T11:41:25;98690.66;;;29.92;39.40
11830;BME280;5972;42.134;24.718;2022-09-29T11:44:00;98693.81;;;29.54;39.77
11830;BME280;5972;42.134;24.718;2022-09-29T11:46:43;98693.81;;;29.54;40.17
11830;BME280;5972;42.134;24.718;2022-09-29T11:52:37;98689.63;;;29.64;40.07
11830;BME280;5972;42.134;24.718;2022-09-29T11:55:18;98665.34;;;29.44;39.85
11830;BME280;5972;42.134;24.718;2022-09-29T11:58:00;98683.75;;;29.62;39.26
11830;BME280;5972;42.134;24.718;2022-09-29T12:00:44;98683.13;;;29.26;40.26
11830;BME280;5972;42.134;24.718;2022-09-29T12:03:20;98672.50;;;29.05;40.65
11830;BME280;5972;42.134;24.718;2022-09-29T12:06:08;98669.78;;;29.10;41.10
11830;BME280;5972;42.134;24.718;2022-09-29T12:08:56;98665.03;;;28.90;41.21
11830;BME280;5972;42.134;24.718;2022-09-29T12:11:38;98662.91;;;29.06;41.61
11830;BME280;5972;42.134;24.718;2022-09-29T12:14:12;98666.81;;;29.14;40.78
11830;BME280;5972;42.134;24.718;2022-09-29T12:16:47;98659.81;;;28.78;41.35
11830;BME280;5972;42.134;24.718;2022-09-29T12:19:19;98644.28;;;28.91;40.93
11830;BME280;5972;42.134;24.718;2022-09-29T12:21:51;98651.84;;;29.37;39.65
11830;BME280;5972;42.134;24.718;2022-09-29T12:24:33;98667.84;;;29.68;39.23
11830;BME280;5972;42.134;24.718;2022-09-29T12:27:04;98670.25;;;29.81;38.11
11830;BME280;5972;42.134;24.718;2022-09-29T12:29:34;98673.00;;;29.75;37.31
11830;BME280;5972;42.134;24.718;2022-09-29T12:32:07;98652.00;;;29.54;37.99
11830;BME280;5972;42.134;24.718;2022-09-29T12:34:42;98645.50;;;29.62;36.72
11830;BME280;5972;42.134;24.718;2022-09-29T12:37:15;98659.31;;;29.77;36.42
11830;BME280;5972;42.134;24.718;2022-09-29T12:39:54;98665.47;;;30.18;36.15
11830;BME280;5972;42.134;24.718;2022-09-29T12:42:39;98647.91;;;30.49;35.36
11830;BME280;5972;42.134;24.718;2022-09-29T12:45:30;98657.91;;;30.24;36.00
11830;BME280;5972;42.134;24.718;2022-09-29T12:48:15;98660.84;;;29.78;36.80
11830;BME280;5972;42.134;24.718;2022-09-29T12:50:48;98651.78;;;29.89;36.85
11830;BME280;5972;42.134;24.718;2022-09-29T12:53:19;98667.91;;;30.05;36.78
11830;BME280;5972;42.134;24.718;2022-09-29T12:55:52;98665.69;;;29.83;37.21
11830;BME280;5972;42.134;24.718;2022-09-29T12:58:29;98673.00;;;29.49;38.48
11830;BME280;5972;42.134;24.718;2022-09-29T13:01:02;98665.84;;;29.68;38.06
11830;BME280;5972;42.134;24.718;2022-09-29T13:10:01;98649.09;;;30.00;38.13
11830;BME280;5972;42.134;24.718;2022-09-29T13:13:06;98650.97;;;30.08;37.86
11830;BME280;5972;42.134;24.718;2022-09-29T13:16:00;98654.72;;;30.05;37.94
11830;BME280;5972;42.134;24.718;2022-09-29T13:19:07;98657.44;;;29.94;37.72
11830;BME280;5972;42.134;24.718;2022-09-29T13:21:41;98654.69;;;29.68;38.39
11830;BME280;5972;42.134;24.718;2022-09-29T13:24:27;98650.75;;;29.55;38.72
11830;BME280;5972;42.134;24.718;2022-09-29T13:27:09;98660.81;;;29.47;38.58
11830;BME280;5972;42.134;24.718;2022-09-29T13:29:47;98645.34;;;29.46;38.73
11830;BME280;5972;42.134;24.718;2022-09-29T13:32:16;98656.06;;;29.53;38.44
11830;BME280;5972;42.134;24.718;2022-09-29T13:34:47;98633.34;;;29.34;39.17
11830;BME280;5972;42.134;24.718;2022-09-29T13:37:17;98649.69;;;29.47;38.14
11830;BME280;5972;42.134;24.718;2022-09-29T13:39:52;98652.75;;;29.28;38.66
11830;BME280;5972;42.134;24.718;2022-09-29T13:45:41;98641.75;;;29.14;39.38
11830;BME280;5972;42.134;24.718;2022-09-29T13:48:33;98653.91;;;29.16;39.25
11830;BME280;5972;42.134;24.718;2022-09-29T13:54:19;98653.34;;;29.32;39.19
11830;BME280;5972;42.134;24.718;2022-09-29T13:56:47;98652.16;;;29.19;38.75
11830;BME280;5972;42.134;24.718;2022-09-29T13:59:18;98650.16;;;29.19;38.65
11830;BME280;5972;42.134;24.718;2022-09-29T14:01:49;98652.81;;;29.08;38.63
11830;BME280;5972;42.134;24.718;2022-09-29T14:04:36;98637.34;;;29.07;38.27
11830;BME280;5972;42.134;24.718;2022-09-29T14:07:05;98651.94;;;29.22;38.88
11830;BME280;5972;42.134;24.718;2022-09-29T14:09:34;98636.47;;;29.21;38.45
11830;BME280;5972;42.134;24.718;2022-09-29T14:12:06;98637.06;;;29.05;38.37
11830;BME280;5972;42.134;24.718;2022-09-29T14:14:36;98648.28;;;29.11;38.65
11830;BME280;5972;42.134;24.718;2022-09-29T14:17:09;98649.16;;;29.22;38.64
11830;BME280;5972;42.134;24.718;2022-09-29T14:19:51;98646.84;;;29.21;38.57
11830;BME280;5972;42.134;24.718;2022-09-29T14:22:55;98657.22;;;29.20;38.57
11830;BME280;5972;42.134;24.718;2022-09-29T14:28:36;98661.56;;;29.21;38.79
11830;BME280;5972;42.134;24.718;2022-09-29T14:31:17;98661.28;;;29.19;39.44